createdAt,value
2022-08-22T00:01:11.970Z,63.78
2022-08-22T00:02:42.056Z,46.37
2022-08-22T00:02:43.871Z,57.70
2022-08-22T00:02:53.053Z,49.69
2022-08-22T00:03:02.138Z,55.95
2022-08-22T00:03:47.284Z,64.03
2022-08-22T00:06:21.413Z,64.32
2022-08-22T00:09:05.548Z,65.54
2022-08-22T00:11:42.131Z,65.92
2022-08-22T00:14:17.400Z,66.87
2022-08-22T00:16:51.670Z,67.10
2022-08-22T00:19:25.521Z,67.65
2022-08-22T00:21:58.764Z,66.71
2022-08-22T00:24:31.701Z,66.44
2022-08-22T00:27:04.285Z,66.26
2022-08-22T00:29:37.047Z,66.79
2022-08-22T00:32:10.713Z,66.80
2022-08-22T00:34:43.886Z,67.46
2022-08-22T00:37:19.131Z,67.66
2022-08-22T00:39:52.463Z,67.70
2022-08-22T00:42:51.240Z,68.94
2022-08-22T00:45:41.285Z,70.72
2022-08-22T00:48:38.849Z,71.19
2022-08-22T00:51:22.538Z,70.91
2022-08-22T00:53:54.485Z,71.05
2022-08-22T00:57:10.957Z,70.93
2022-08-22T00:59:52.741Z,70.56
2022-08-22T01:02:32.910Z,70.10
2022-08-22T01:05:12.043Z,70.13
2022-08-22T01:07:53.997Z,70.13
2022-08-22T01:10:34.557Z,70.79
2022-08-22T01:13:16.838Z,70.54
2022-08-22T01:15:46.102Z,71.07
2022-08-22T01:18:32.946Z,71.94
2022-08-22T01:21:41.306Z,72.48
2022-08-22T01:25:07.729Z,72.10
2022-08-22T01:28:04.541Z,71.24
2022-08-22T01:31:00.209Z,71.29
2022-08-22T01:34:06.835Z,70.81
2022-08-22T01:37:16.034Z,71.36
2022-08-22T01:40:20.164Z,71.86
2022-08-22T01:43:03.742Z,72.92
2022-08-22T01:45:43.354Z,72.91
2022-08-22T01:48:15.594Z,72.58
2022-08-22T01:50:46.943Z,72.57
2022-08-22T01:53:18.914Z,72.37
2022-08-22T01:55:55.632Z,72.46
2022-08-22T01:58:26.037Z,72.94
2022-08-22T02:01:09.959Z,73.44
2022-08-22T02:03:42.587Z,72.99
2022-08-22T02:06:15.045Z,73.18
2022-08-22T02:08:50.043Z,75.03
2022-08-22T02:11:36.673Z,75.04
2022-08-22T02:14:14.099Z,74.54
2022-08-22T02:16:44.195Z,74.08
2022-08-22T02:19:23.939Z,75.22
2022-08-22T02:21:57.151Z,75.66
2022-08-22T02:24:38.382Z,75.62
2022-08-22T02:27:11.816Z,74.67
2022-08-22T02:29:44.620Z,75.11
2022-08-22T02:32:20.502Z,74.76
2022-08-22T02:34:56.641Z,73.97
2022-08-22T02:37:35.257Z,74.29
2022-08-22T02:40:09.257Z,75.00
2022-08-22T02:42:41.829Z,75.28
2022-08-22T02:45:24.032Z,74.33
2022-08-22T02:47:58.037Z,74.51
2022-08-22T02:50:31.865Z,75.84
2022-08-22T02:53:07.044Z,75.54
2022-08-22T02:55:46.597Z,75.09
2022-08-22T02:58:22.041Z,75.18
2022-08-22T03:00:52.314Z,75.03
2022-08-22T03:03:26.462Z,75.01
2022-08-22T03:06:01.982Z,75.46
2022-08-22T03:08:33.719Z,76.23
2022-08-22T03:11:10.920Z,76.69
2022-08-22T03:13:47.784Z,76.79
2022-08-22T03:16:18.565Z,76.97
2022-08-22T03:18:53.351Z,77.07
2022-08-22T03:21:29.409Z,77.53
2022-08-22T03:24:03.559Z,77.78
2022-08-22T03:26:42.464Z,77.20
2022-08-22T03:29:13.550Z,77.58
2022-08-22T03:32:06.610Z,77.17
2022-08-22T03:34:35.044Z,78.41
2022-08-22T03:37:08.027Z,78.79
2022-08-22T03:39:47.845Z,79.11
2022-08-22T03:42:45.514Z,79.36
2022-08-22T03:45:32.866Z,78.79
2022-08-22T03:48:42.242Z,78.60
2022-08-22T03:51:21.715Z,77.99
2022-08-22T03:54:10.506Z,77.87
2022-08-22T03:57:00.437Z,77.09
2022-08-22T04:00:05.204Z,76.88
2022-08-22T04:02:46.477Z,77.72
2022-08-22T04:05:36.627Z,77.90
2022-08-22T04:08:43.952Z,76.64
2022-08-22T04:11:39.379Z,76.21
2022-08-22T04:14:24.334Z,76.54
2022-08-22T04:17:12.964Z,76.65
2022-08-22T04:20:15.218Z,78.61
2022-08-22T04:23:27.354Z,78.87
2022-08-22T04:26:00.544Z,78.75
2022-08-22T04:28:41.242Z,79.10
2022-08-22T04:31:12.826Z,79.84
2022-08-22T04:33:45.981Z,81.20
2022-08-22T04:36:18.802Z,80.68
2022-08-22T04:38:52.860Z,80.24
2022-08-22T04:41:26.502Z,79.87
2022-08-22T04:43:58.157Z,81.54
2022-08-22T04:46:32.143Z,80.76
2022-08-22T04:49:08.597Z,80.65
2022-08-22T04:51:39.972Z,79.23
2022-08-22T04:54:25.746Z,77.54
2022-08-22T04:57:05.393Z,76.66
2022-08-22T04:59:33.657Z,75.83
2022-08-22T05:02:06.361Z,76.26
2022-08-22T05:04:38.465Z,76.98
2022-08-22T05:07:09.005Z,77.40
2022-08-22T05:09:39.424Z,77.07
2022-08-22T05:12:12.010Z,75.86
2022-08-22T05:14:43.271Z,75.24
2022-08-22T05:17:15.676Z,74.48
2022-08-22T05:19:47.929Z,75.06
2022-08-22T05:22:21.758Z,75.09
2022-08-22T05:24:51.428Z,74.13
2022-08-22T05:27:24.714Z,73.46
2022-08-22T05:29:55.029Z,71.78
2022-08-22T05:32:26.991Z,70.04
2022-08-22T05:34:59.379Z,69.10
2022-08-22T05:37:40.280Z,69.25
2022-08-22T05:40:10.665Z,68.90
2022-08-22T05:42:40.064Z,68.09
2022-08-22T05:45:11.598Z,67.41
2022-08-22T05:47:42.666Z,66.88
2022-08-22T05:50:15.161Z,67.18
2022-08-22T05:52:52.674Z,66.41
2022-08-22T05:55:26.938Z,67.09
2022-08-22T05:58:19.442Z,65.13
2022-08-22T06:00:49.522Z,64.73
2022-08-22T06:03:20.021Z,64.78
2022-08-22T06:05:53.094Z,65.00
2022-08-22T06:08:24.504Z,65.05
2022-08-22T06:10:55.170Z,63.54
2022-08-22T06:13:32.200Z,63.24
2022-08-22T06:16:07.686Z,63.49
2022-08-22T06:18:38.081Z,63.35
2022-08-22T06:21:09.625Z,62.42
2022-08-22T06:23:39.486Z,61.99
2022-08-22T06:26:20.279Z,61.03
2022-08-22T06:28:55.235Z,61.39
2022-08-22T06:31:25.702Z,60.55
2022-08-22T06:33:57.447Z,59.92
2022-08-22T06:36:33.914Z,59.22
2022-08-22T06:39:10.112Z,57.48
2022-08-22T06:41:42.343Z,56.08
2022-08-22T06:44:17.898Z,55.58
2022-08-22T06:46:47.185Z,54.33
2022-08-22T06:49:15.915Z,53.20
2022-08-22T06:51:44.455Z,52.98
2022-08-22T06:54:17.276Z,55.50
2022-08-22T06:56:47.589Z,55.08
2022-08-22T06:59:19.033Z,53.34
2022-08-22T07:01:51.318Z,53.88
2022-08-22T07:04:19.965Z,53.53
2022-08-22T07:06:51.554Z,52.76
2022-08-22T07:09:24.923Z,52.04
2022-08-22T07:11:53.961Z,52.52
2022-08-22T07:14:29.589Z,51.38
2022-08-22T07:17:00.074Z,51.47
2022-08-22T07:19:32.057Z,50.99
2022-08-22T07:22:01.545Z,49.93
2022-08-22T07:24:32.484Z,49.64
2022-08-22T07:27:19.847Z,49.89
2022-08-22T07:29:59.738Z,47.82
2022-08-22T07:32:31.555Z,50.02
2022-08-22T07:35:08.145Z,48.83
2022-08-22T07:37:53.423Z,48.31
2022-08-22T07:40:25.750Z,46.30
2022-08-22T07:42:58.642Z,46.09
2022-08-22T07:45:34.328Z,43.43
2022-08-22T07:48:22.685Z,43.39
2022-08-22T07:51:01.652Z,43.14
2022-08-22T07:53:34.248Z,44.34
2022-08-22T07:56:03.632Z,43.78
2022-08-22T07:58:33.862Z,42.54
2022-08-22T08:01:03.531Z,41.88
2022-08-22T08:03:32.359Z,42.67
2022-08-22T08:06:01.741Z,42.14
2022-08-22T08:08:34.516Z,41.35
2022-08-22T08:11:02.860Z,40.83
2022-08-22T08:13:36.183Z,42.02
2022-08-22T08:16:08.001Z,40.80
2022-08-22T08:18:37.318Z,40.43
2022-08-22T08:21:07.858Z,39.96
2022-08-22T08:23:41.312Z,39.65
2022-08-22T08:26:12.329Z,39.75
2022-08-22T08:28:42.040Z,39.96
2022-08-22T08:31:17.192Z,40.14
2022-08-22T08:33:47.201Z,39.02
2022-08-22T08:36:36.786Z,39.59
2022-08-22T08:39:14.340Z,39.58
2022-08-22T08:42:10.645Z,39.39
2022-08-22T08:45:08.801Z,38.62
2022-08-22T08:47:47.877Z,38.88
2022-08-22T08:50:29.125Z,38.07
2022-08-22T08:53:05.396Z,37.98
2022-08-22T08:55:44.534Z,36.54
2022-08-22T08:58:34.283Z,35.79
2022-08-22T09:01:12.908Z,36.52
2022-08-22T09:04:21.386Z,37.62
2022-08-22T09:07:02.899Z,36.14
2022-08-22T09:09:52.553Z,35.47
2022-08-22T09:12:56.962Z,34.99
2022-08-22T09:15:58.534Z,36.75
2022-08-22T09:18:46.896Z,37.40
2022-08-22T09:21:31.151Z,37.50
2022-08-22T09:24:53.400Z,35.86
2022-08-22T09:27:33.952Z,34.04
2022-08-22T09:30:07.083Z,33.92
2022-08-22T09:32:44.463Z,35.83
2022-08-22T09:35:20.628Z,33.95
2022-08-22T09:38:00.720Z,33.63
2022-08-22T09:40:31.890Z,35.08
2022-08-22T09:43:04.404Z,33.73
2022-08-22T09:45:50.056Z,34.63
2022-08-22T09:48:40.019Z,32.95
2022-08-22T09:51:31.722Z,32.98
2022-08-22T09:54:22.931Z,33.88
2022-08-22T09:57:02.529Z,33.55
2022-08-22T09:59:47.682Z,32.84
2022-08-22T10:02:25.050Z,33.44
2022-08-22T10:04:59.074Z,32.04
2022-08-22T10:07:36.491Z,32.14
2022-08-22T10:10:21.343Z,32.35
2022-08-22T10:12:55.581Z,32.28
2022-08-22T10:15:31.580Z,32.41
2022-08-22T10:18:11.581Z,33.25
2022-08-22T10:20:51.761Z,31.67
2022-08-22T10:23:23.849Z,30.03
2022-08-22T10:25:56.918Z,32.32
2022-08-22T10:28:34.605Z,31.75
2022-08-22T10:31:13.945Z,29.94
2022-08-22T10:33:46.655Z,29.25
2022-08-22T10:36:17.851Z,30.57
2022-08-22T10:38:47.911Z,30.04
2022-08-22T10:41:28.467Z,31.38
2022-08-22T10:44:04.232Z,30.86
2022-08-22T10:46:38.315Z,30.14
2022-08-22T10:49:09.927Z,31.18
2022-08-22T10:51:43.366Z,30.16
2022-08-22T10:54:28.446Z,30.36
2022-08-22T10:57:08.123Z,28.97
2022-08-22T10:59:44.470Z,27.96
2022-08-22T11:02:33.735Z,28.95
2022-08-22T11:05:29.362Z,27.46
2022-08-22T11:08:08.504Z,25.44
2022-08-22T11:10:56.168Z,26.70
2022-08-22T11:13:29.878Z,26.63
2022-08-22T11:16:04.348Z,27.53
2022-08-22T11:19:02.788Z,25.77
2022-08-22T11:21:50.997Z,26.49
2022-08-22T11:24:57.065Z,26.10
2022-08-22T11:27:39.880Z,26.32
2022-08-22T11:30:18.047Z,25.44
2022-08-22T11:33:11.105Z,27.16
2022-08-22T11:35:45.067Z,25.94
2022-08-22T11:38:21.232Z,23.01
2022-08-22T11:40:59.098Z,25.14
2022-08-22T11:43:41.325Z,22.29
2022-08-22T11:46:23.381Z,23.62
2022-08-22T11:49:14.232Z,23.23
2022-08-22T11:51:57.307Z,23.86
2022-08-22T11:54:33.458Z,23.37
2022-08-22T11:57:06.199Z,22.27
2022-08-22T11:59:43.243Z,22.05
2022-08-22T12:02:26.561Z,23.54
2022-08-22T12:04:57.660Z,22.23
2022-08-22T12:07:28.793Z,23.47
2022-08-22T12:09:59.960Z,23.30
2022-08-22T12:12:53.609Z,25.65
2022-08-22T12:15:24.469Z,25.97
2022-08-22T12:18:37.769Z,24.54
2022-08-22T12:21:28.853Z,23.77
2022-08-22T12:24:41.659Z,24.31
2022-08-22T12:27:48.213Z,22.68
2022-08-22T12:30:31.045Z,22.49
2022-08-22T12:33:33.837Z,25.40
2022-08-22T12:36:20.648Z,25.22
2022-08-22T12:39:12.169Z,25.49
2022-08-22T12:42:04.131Z,22.89
2022-08-22T12:44:40.858Z,20.60
2022-08-22T12:47:17.989Z,20.00
2022-08-22T12:50:21.552Z,18.66
2022-08-22T12:53:07.047Z,22.90
2022-08-22T12:55:51.412Z,24.94
2022-08-22T12:58:33.863Z,25.45
2022-08-22T13:01:06.292Z,24.70
2022-08-22T13:03:38.018Z,25.37
2022-08-22T13:06:48.737Z,26.46
2022-08-22T13:09:28.859Z,27.13
2022-08-22T13:12:05.092Z,27.95
2022-08-22T13:14:35.037Z,26.76
2022-08-22T13:17:15.171Z,29.36
2022-08-22T13:20:03.912Z,28.74
2022-08-22T13:22:35.991Z,26.88
2022-08-22T13:25:08.975Z,26.66
2022-08-22T13:27:50.774Z,27.20
2022-08-22T13:30:21.286Z,27.15
2022-08-22T13:32:51.545Z,25.05
2022-08-22T13:35:24.925Z,28.55
2022-08-22T13:37:56.926Z,27.84
2022-08-22T13:40:27.122Z,27.57
2022-08-22T13:43:05.191Z,27.82
2022-08-22T13:45:35.422Z,27.82
2022-08-22T13:48:11.390Z,28.47
2022-08-22T13:50:57.823Z,29.66
2022-08-22T13:53:35.522Z,29.45
2022-08-22T13:56:15.552Z,29.97
2022-08-22T13:58:46.039Z,30.13
2022-08-22T14:01:31.076Z,29.68
2022-08-22T14:04:02.761Z,30.53
2022-08-22T14:06:38.132Z,30.21
2022-08-22T14:09:31.270Z,30.42
2022-08-22T14:12:08.194Z,30.31
2022-08-22T14:14:42.637Z,30.38
2022-08-22T14:17:17.426Z,28.93
2022-08-22T14:19:58.996Z,29.89
2022-08-22T14:22:31.997Z,29.88
2022-08-22T14:25:08.752Z,29.42
2022-08-22T14:27:39.988Z,28.91
2022-08-22T14:30:14.912Z,29.56
2022-08-22T14:32:47.404Z,29.22
2022-08-22T14:35:23.530Z,28.90
2022-08-22T14:38:17.540Z,30.70
2022-08-22T14:40:48.572Z,31.09
2022-08-22T14:43:22.644Z,29.33
2022-08-22T14:45:57.295Z,30.10
2022-08-22T14:48:37.500Z,29.31
2022-08-22T14:51:11.064Z,29.98
2022-08-22T14:53:40.522Z,29.13
2022-08-22T14:56:12.807Z,28.54
2022-08-22T14:58:48.745Z,29.28
2022-08-22T15:01:21.657Z,29.47
2022-08-22T15:03:54.352Z,29.40
2022-08-22T15:06:32.695Z,30.37
2022-08-22T15:09:01.036Z,30.19
2022-08-22T15:11:37.901Z,28.82
2022-08-22T15:14:13.534Z,29.21
2022-08-22T15:16:46.580Z,28.64
2022-08-22T15:19:25.554Z,28.57
2022-08-22T15:22:09.819Z,27.68
2022-08-22T15:24:42.905Z,27.75
2022-08-22T15:27:12.722Z,27.35
2022-08-22T15:29:50.944Z,28.63
2022-08-22T15:32:22.936Z,27.39
2022-08-22T15:34:55.425Z,27.56
2022-08-22T15:37:32.667Z,27.60
2022-08-22T15:40:28.966Z,27.25
2022-08-22T15:42:58.867Z,27.82
2022-08-22T15:45:33.732Z,27.68
2022-08-22T15:48:04.499Z,27.62
2022-08-22T15:50:35.386Z,28.76
2022-08-22T15:53:15.371Z,29.38
2022-08-22T15:56:28.046Z,30.80
2022-08-22T15:59:53.307Z,29.51
2022-08-22T16:02:27.095Z,30.60
2022-08-22T16:05:03.842Z,30.12
2022-08-22T16:07:39.488Z,30.13
2022-08-22T16:10:14.617Z,29.75
2022-08-22T16:12:45.759Z,30.33
2022-08-22T16:15:56.337Z,29.71
2022-08-22T16:19:02.103Z,29.17
2022-08-22T16:22:18.857Z,29.22
2022-08-22T16:25:10.616Z,30.15
2022-08-22T16:27:52.791Z,28.92
2022-08-22T16:30:35.550Z,29.27
2022-08-22T16:33:04.458Z,28.64
2022-08-22T16:36:24.220Z,27.86
2022-08-22T16:38:54.998Z,27.66
2022-08-22T16:41:31.031Z,29.17
2022-08-22T16:44:21.741Z,29.48
2022-08-22T16:46:51.772Z,28.33
2022-08-22T16:49:29.473Z,28.99
2022-08-22T16:52:30.639Z,29.20
2022-08-22T16:55:02.624Z,29.09
2022-08-22T16:57:38.369Z,29.43
2022-08-22T17:00:11.988Z,30.09
2022-08-22T17:02:59.149Z,29.67
2022-08-22T17:05:47.271Z,29.69
2022-08-22T17:08:27.460Z,30.74
2022-08-22T17:11:08.808Z,29.96
2022-08-22T17:13:51.239Z,29.09
2022-08-22T17:16:41.078Z,30.01
2022-08-22T17:19:21.812Z,31.03
2022-08-22T17:21:53.704Z,30.95
2022-08-22T17:24:32.201Z,30.90
2022-08-22T17:27:07.261Z,31.53
2022-08-22T17:29:53.744Z,31.71
2022-08-22T17:32:27.129Z,31.27
2022-08-22T17:35:02.923Z,31.46
2022-08-22T17:37:37.976Z,31.49
2022-08-22T17:40:20.169Z,31.59
2022-08-22T17:43:00.973Z,31.42
2022-08-22T17:45:37.992Z,31.66
2022-08-22T17:48:09.698Z,31.89
2022-08-22T17:50:42.930Z,32.12
2022-08-22T17:53:16.508Z,32.87
2022-08-22T17:55:58.281Z,32.18
2022-08-22T17:58:31.676Z,32.94
2022-08-22T18:01:13.400Z,32.88
2022-08-22T18:03:46.381Z,33.36
2022-08-22T18:06:20.189Z,33.14
2022-08-22T18:11:46.043Z,34.50
2022-08-22T18:14:24.944Z,34.92
2022-08-22T18:16:55.506Z,35.37
2022-08-22T18:19:39.407Z,35.33
2022-08-22T18:22:09.498Z,34.63
2022-08-22T18:24:44.794Z,35.20
2022-08-22T18:27:34.687Z,36.04
2022-08-22T18:30:08.756Z,35.46
2022-08-22T18:32:43.717Z,35.14
2022-08-22T18:35:16.958Z,35.55
2022-08-22T18:37:56.074Z,35.96
2022-08-22T18:40:32.610Z,36.64
2022-08-22T18:43:09.040Z,37.17
2022-08-22T18:46:03.805Z,37.18
2022-08-22T18:48:54.316Z,37.68
2022-08-22T18:51:29.389Z,37.25
2022-08-22T18:54:16.140Z,37.45
2022-08-22T18:56:53.973Z,37.85
2022-08-22T18:59:38.377Z,37.85
2022-08-22T19:02:18.260Z,38.10
2022-08-22T19:05:01.023Z,37.94
2022-08-22T19:07:52.037Z,38.94
2022-08-22T19:10:42.499Z,38.77
2022-08-22T19:13:43.819Z,38.98
2022-08-22T19:16:29.088Z,38.69
2022-08-22T19:18:59.620Z,38.90
2022-08-22T19:21:48.240Z,39.02
2022-08-22T19:24:40.362Z,39.99
2022-08-22T19:27:31.117Z,40.06
2022-08-22T19:30:02.620Z,39.61
2022-08-22T19:33:01.507Z,39.95
2022-08-22T19:35:37.550Z,40.56
2022-08-22T19:38:08.759Z,40.21
2022-08-22T19:40:58.208Z,40.31
2022-08-22T19:43:32.751Z,40.35
2022-08-22T19:46:03.706Z,40.90
2022-08-22T19:48:34.971Z,40.77
2022-08-22T19:51:13.290Z,41.24
2022-08-22T19:53:53.727Z,42.28
2022-08-22T19:56:32.656Z,42.68
2022-08-22T19:59:12.424Z,43.51
2022-08-22T20:01:56.140Z,43.96
2022-08-22T20:04:50.010Z,44.23
2022-08-22T20:07:27.469Z,43.95
2022-08-22T20:10:02.399Z,44.52
2022-08-22T20:12:36.412Z,44.31
2022-08-22T20:15:16.322Z,43.46
2022-08-22T20:17:44.681Z,43.90
2022-08-22T20:20:35.489Z,43.27
2022-08-22T20:23:09.249Z,43.13
2022-08-22T20:25:44.420Z,42.49
2022-08-22T20:28:31.293Z,42.86
2022-08-22T20:31:02.203Z,42.62
2022-08-22T20:33:34.848Z,42.28
2022-08-22T20:36:05.703Z,42.39
2022-08-22T20:38:37.014Z,41.83
2022-08-22T20:41:15.225Z,42.71
2022-08-22T20:43:51.618Z,42.79
2022-08-22T20:46:43.588Z,43.67
2022-08-22T20:49:16.300Z,44.30
2022-08-22T20:51:52.475Z,44.15
2022-08-22T20:54:23.937Z,43.67
2022-08-22T20:56:56.518Z,43.92
2022-08-22T20:59:30.641Z,43.59
2022-08-22T21:02:07.306Z,43.22
2022-08-22T21:04:42.902Z,43.42
2022-08-22T21:07:11.326Z,43.00
2022-08-22T21:09:56.466Z,43.68
2022-08-22T21:12:26.386Z,43.40
2022-08-22T21:14:54.464Z,43.62
2022-08-22T21:17:25.727Z,43.41
2022-08-22T21:19:54.359Z,42.91
2022-08-22T21:22:30.859Z,43.60
2022-08-22T21:25:00.551Z,43.31
2022-08-22T21:27:31.853Z,43.55
2022-08-22T21:30:00.620Z,42.74
2022-08-22T21:32:34.625Z,42.84
2022-08-22T21:35:03.855Z,43.57
2022-08-22T21:37:38.221Z,42.43
2022-08-22T21:40:14.506Z,43.49
2022-08-22T21:42:46.126Z,42.82
2022-08-22T21:45:27.821Z,43.62
2022-08-22T21:47:56.090Z,43.48
2022-08-22T21:50:34.629Z,43.10
2022-08-22T21:53:10.285Z,43.10
2022-08-22T21:55:42.842Z,42.89
2022-08-22T22:01:28.488Z,43.34
2022-08-22T22:03:56.339Z,43.65
2022-08-22T22:06:24.246Z,43.39
2022-08-22T22:08:52.219Z,43.51
2022-08-22T22:11:20.240Z,43.84
2022-08-22T22:13:48.950Z,43.57
2022-08-22T22:16:24.264Z,43.65
2022-08-22T22:18:52.089Z,42.95
2022-08-22T22:21:19.941Z,42.87
2022-08-22T22:23:49.294Z,42.86
2022-08-22T22:26:17.653Z,42.78
2022-08-22T22:28:48.264Z,43.63
2022-08-22T22:31:17.248Z,43.82
2022-08-22T22:33:46.510Z,43.79
2022-08-22T22:36:17.126Z,43.44
2022-08-22T22:38:45.023Z,43.97
2022-08-22T22:41:12.960Z,43.93
2022-08-22T22:43:40.848Z,44.47
2022-08-22T22:46:08.838Z,44.74
2022-08-22T22:48:36.693Z,44.89
2022-08-22T22:51:09.883Z,46.09
2022-08-22T22:53:42.760Z,46.44
2022-08-22T22:56:15.837Z,46.47
2022-08-22T22:58:44.337Z,46.99
2022-08-22T23:01:15.191Z,46.91
2022-08-22T23:03:43.306Z,48.10
2022-08-22T23:06:13.886Z,47.47
2022-08-22T23:08:42.425Z,47.00
2022-08-22T23:11:12.044Z,45.91
2022-08-22T23:13:42.814Z,46.29
2022-08-22T23:16:12.784Z,46.53
2022-08-22T23:18:40.788Z,46.61
2022-08-22T23:21:15.225Z,46.52
2022-08-22T23:23:43.632Z,46.60
2022-08-22T23:26:11.531Z,47.30
2022-08-22T23:28:39.440Z,46.07
2022-08-22T23:31:12.695Z,46.11
2022-08-22T23:33:40.597Z,45.34
2022-08-22T23:36:15.277Z,45.13
2022-08-22T23:38:43.117Z,45.48
2022-08-22T23:41:12.843Z,46.23
2022-08-22T23:43:43.015Z,46.39
2022-08-22T23:46:11.340Z,46.42
2022-08-22T23:48:39.166Z,46.62
2022-08-22T23:51:07.759Z,47.02
2022-08-22T23:53:37.161Z,47.55
2022-08-22T23:56:19.174Z,47.69
2022-08-22T23:58:47.498Z,48.24
